createdAt,value
2023-05-09T00:02:06.385Z,49.35
2023-05-09T00:07:08.188Z,49.22
2023-05-09T00:12:10.079Z,49.22
2023-05-09T00:17:14.608Z,49.62
2023-05-09T00:22:17.925Z,49.50
2023-05-09T00:27:19.774Z,49.56
2023-05-09T00:32:21.738Z,49.72
2023-05-09T00:37:24.198Z,49.70
2023-05-09T00:42:26.490Z,49.85
2023-05-09T00:47:29.019Z,49.93
2023-05-09T00:52:34.025Z,50.09
2023-05-09T00:57:36.548Z,50.28
2023-05-09T01:02:53.395Z,50.43
2023-05-09T01:08:07.662Z,50.59
2023-05-09T01:13:32.794Z,50.77
2023-05-09T01:18:40.764Z,50.80
2023-05-09T01:23:45.553Z,50.52
2023-05-09T01:29:08.709Z,50.56
2023-05-09T01:34:15.148Z,50.49
2023-05-09T01:39:18.726Z,50.52
2023-05-09T01:44:22.677Z,50.45
2023-05-09T01:49:26.353Z,50.72
2023-05-09T01:54:29.334Z,50.88
2023-05-09T01:59:33.407Z,50.88
2023-05-09T02:04:36.352Z,50.92
2023-05-09T02:09:38.532Z,50.88
2023-05-09T02:14:40.480Z,50.80
2023-05-09T02:19:43.327Z,51.03
2023-05-09T02:24:45.592Z,51.09
2023-05-09T02:29:55.424Z,50.98
2023-05-09T02:34:59.081Z,50.96
2023-05-09T02:40:05.645Z,50.77
2023-05-09T02:45:09.218Z,50.96
2023-05-09T02:50:11.629Z,50.73
2023-05-09T02:55:14.500Z,50.72
2023-05-09T03:00:18.783Z,50.43
2023-05-09T03:05:20.948Z,50.37
2023-05-09T03:10:23.190Z,50.15
2023-05-09T03:15:25.134Z,49.95
2023-05-09T03:20:27.722Z,49.96
2023-05-09T03:25:29.982Z,49.71
2023-05-09T03:30:31.958Z,49.75
2023-05-09T03:35:34.506Z,49.84
2023-05-09T03:40:37.828Z,49.67
2023-05-09T03:45:44.126Z,49.90
2023-05-09T03:50:48.458Z,49.79
2023-05-09T03:55:52.106Z,49.81
2023-05-09T04:00:55.091Z,49.71
2023-05-09T04:06:00.150Z,49.70
2023-05-09T04:11:08.452Z,49.65
2023-05-09T04:16:12.669Z,49.75
2023-05-09T04:21:14.541Z,49.68
2023-05-09T04:26:18.415Z,49.59
2023-05-09T04:31:23.917Z,49.67
2023-05-09T04:36:30.071Z,49.48
2023-05-09T04:41:33.400Z,49.56
2023-05-09T04:46:35.454Z,49.78
2023-05-09T04:51:38.228Z,49.82
2023-05-09T04:56:40.286Z,49.87
2023-05-09T05:01:42.273Z,49.80
2023-05-09T05:06:44.279Z,49.80
2023-05-09T05:11:58.422Z,49.90
2023-05-09T05:17:03.621Z,49.79
2023-05-09T05:22:06.618Z,49.88
2023-05-09T05:27:11.164Z,49.78
2023-05-09T05:32:13.125Z,49.88
2023-05-09T05:37:15.381Z,49.77
2023-05-09T05:42:18.425Z,49.79
2023-05-09T05:47:23.654Z,49.76
2023-05-09T05:52:29.932Z,49.59
2023-05-09T05:57:35.388Z,49.46
2023-05-09T06:02:37.823Z,49.44
2023-05-09T06:07:41.665Z,49.18
2023-05-09T06:12:44.132Z,49.16
2023-05-09T06:17:46.409Z,48.99
2023-05-09T06:22:48.363Z,49.00
2023-05-09T06:27:50.126Z,48.62
2023-05-09T06:32:52.352Z,48.49
2023-05-09T06:37:54.612Z,48.54
2023-05-09T06:42:56.669Z,48.34
2023-05-09T06:47:58.617Z,48.22
2023-05-09T06:53:00.582Z,48.19
2023-05-09T06:58:03.555Z,48.01
2023-05-09T07:03:07.774Z,47.56
2023-05-09T07:08:10.001Z,47.41
2023-05-09T07:13:13.515Z,47.06
2023-05-09T07:18:15.501Z,46.74
2023-05-09T07:23:17.400Z,46.64
2023-05-09T07:28:19.559Z,46.68
2023-05-09T07:33:22.923Z,46.36
2023-05-09T07:38:24.826Z,46.42
2023-05-09T07:43:27.970Z,46.13
2023-05-09T07:48:29.852Z,45.89
2023-05-09T07:53:31.930Z,45.68
2023-05-09T07:58:33.875Z,45.75
2023-05-09T08:03:36.107Z,45.91
2023-05-09T08:08:39.049Z,45.75
2023-05-09T08:13:40.990Z,45.66
2023-05-09T08:18:46.870Z,45.90
2023-05-09T08:23:48.701Z,45.87
2023-05-09T08:28:51.809Z,45.78
2023-05-09T08:33:54.694Z,45.84
2023-05-09T08:38:56.526Z,45.57
2023-05-09T08:43:58.427Z,45.53
2023-05-09T08:49:01.209Z,45.47
2023-05-09T08:54:03.584Z,44.98
2023-05-09T08:59:05.932Z,45.15
2023-05-09T09:04:09.177Z,44.92
2023-05-09T09:09:13.063Z,44.49
2023-05-09T09:14:29.607Z,43.70
2023-05-09T09:19:34.245Z,43.15
2023-05-09T09:24:37.145Z,42.88
2023-05-09T09:35:08.481Z,42.05
2023-05-09T09:40:12.396Z,41.95
2023-05-09T09:45:17.319Z,41.68
2023-05-09T09:50:23.398Z,42.12
2023-05-09T09:55:25.352Z,41.92
2023-05-09T10:00:28.738Z,41.94
2023-05-09T10:05:31.435Z,41.74
2023-05-09T10:10:35.490Z,41.63
2023-05-09T10:15:52.140Z,41.41
2023-05-09T10:20:57.315Z,41.60
2023-05-09T10:26:21.540Z,41.26
2023-05-09T10:31:29.772Z,41.14
2023-05-09T10:36:32.674Z,41.43
2023-05-09T10:41:37.087Z,41.28
2023-05-09T10:46:39.371Z,41.23
2023-05-09T10:51:42.391Z,40.59
2023-05-09T10:56:44.586Z,40.36
2023-05-09T11:01:46.614Z,40.03
2023-05-09T11:06:50.997Z,39.66
2023-05-09T11:11:56.533Z,40.03
2023-05-09T11:17:04.379Z,39.89
2023-05-09T11:22:28.033Z,39.39
2023-05-09T11:27:52.173Z,39.52
2023-05-09T11:32:55.856Z,39.09
2023-05-09T11:38:05.908Z,39.10
2023-05-09T11:43:08.158Z,39.21
2023-05-09T11:48:10.780Z,38.92
2023-05-09T11:53:13.096Z,38.54
2023-05-09T11:58:20.085Z,38.07
2023-05-09T12:03:22.080Z,37.62
2023-05-09T12:08:28.492Z,37.73
2023-05-09T12:13:30.427Z,37.15
2023-05-09T12:18:32.278Z,36.88
2023-05-09T12:23:36.159Z,36.67
2023-05-09T12:28:38.515Z,36.63
2023-05-09T12:33:40.742Z,36.31
2023-05-09T12:38:53.177Z,35.65
2023-05-09T12:43:55.595Z,35.89
2023-05-09T12:48:58.573Z,35.77
2023-05-09T12:54:04.742Z,35.25
2023-05-09T12:59:11.228Z,34.92
2023-05-09T13:04:14.372Z,35.17
2023-05-09T13:09:16.449Z,35.10
2023-05-09T13:14:21.995Z,35.47
2023-05-09T13:19:24.912Z,35.22
2023-05-09T13:24:26.829Z,35.06
2023-05-09T13:29:28.607Z,35.35
2023-05-09T13:34:31.869Z,35.62
2023-05-09T13:39:35.416Z,35.50
2023-05-09T13:44:37.248Z,35.28
2023-05-09T13:49:39.205Z,35.22
2023-05-09T13:54:41.129Z,35.22
2023-05-09T13:59:43.427Z,35.19
2023-05-09T14:04:45.243Z,35.58
2023-05-09T14:09:49.080Z,35.24
2023-05-09T14:14:54.348Z,34.96
2023-05-09T14:20:00.486Z,34.68
2023-05-09T14:25:02.617Z,34.64
2023-05-09T14:30:05.783Z,34.81
2023-05-09T14:35:08.055Z,35.30
2023-05-09T14:40:10.245Z,35.30
2023-05-09T14:45:13.054Z,34.84
2023-05-09T14:50:16.802Z,34.75
2023-05-09T14:55:19.747Z,34.88
2023-05-09T15:00:22.560Z,35.24
2023-05-09T15:05:25.286Z,35.14
2023-05-09T15:10:27.938Z,35.28
2023-05-09T15:15:29.882Z,35.41
2023-05-09T15:20:32.084Z,35.52
2023-05-09T15:25:34.284Z,35.61
2023-05-09T15:30:38.299Z,35.46
2023-05-09T15:35:44.338Z,35.84
2023-05-09T15:40:46.281Z,35.82
2023-05-09T15:45:48.415Z,36.04
2023-05-09T15:50:53.222Z,36.04
2023-05-09T15:55:57.321Z,36.20
2023-05-09T16:00:59.195Z,35.94
2023-05-09T16:06:02.016Z,36.25
2023-05-09T16:11:05.233Z,36.32
2023-05-09T16:16:07.333Z,36.43
2023-05-09T16:21:09.530Z,36.29
2023-05-09T16:26:11.890Z,36.15
2023-05-09T16:31:13.880Z,36.47
2023-05-09T16:36:15.728Z,36.81
2023-05-09T16:41:17.520Z,37.00
2023-05-09T16:46:19.809Z,36.78
2023-05-09T16:51:21.865Z,36.75
2023-05-09T16:56:23.896Z,36.84
2023-05-09T17:01:25.891Z,37.06
2023-05-09T17:06:28.272Z,36.93
2023-05-09T17:11:30.408Z,36.86
2023-05-09T17:16:32.280Z,36.83
2023-05-09T17:21:34.311Z,37.23
2023-05-09T17:26:36.187Z,36.96
2023-05-09T17:31:39.099Z,37.25
2023-05-09T17:36:43.509Z,37.15
2023-05-09T17:41:45.651Z,37.23
2023-05-09T17:46:48.324Z,37.44
2023-05-09T17:51:53.197Z,37.91
2023-05-09T17:57:01.430Z,37.77
2023-05-09T18:02:03.218Z,37.94
2023-05-09T18:07:05.180Z,38.08
2023-05-09T18:12:07.350Z,38.15
2023-05-09T18:17:09.283Z,38.11
2023-05-09T18:22:11.286Z,38.24
2023-05-09T18:27:13.206Z,38.61
2023-05-09T18:32:15.054Z,38.74
2023-05-09T18:37:18.960Z,38.69
2023-05-09T18:42:20.917Z,38.83
2023-05-09T18:47:24.468Z,38.83
2023-05-09T18:52:26.627Z,39.02
2023-05-09T18:57:28.534Z,38.92
2023-05-09T19:02:30.588Z,39.00
2023-05-09T19:07:32.699Z,39.33
2023-05-09T19:12:37.493Z,39.47
2023-05-09T19:17:39.591Z,39.51
2023-05-09T19:22:45.692Z,39.68
2023-05-09T19:27:48.000Z,39.73
2023-05-09T19:32:50.103Z,39.91
2023-05-09T19:37:52.153Z,39.88
2023-05-09T19:42:54.008Z,39.92
2023-05-09T19:47:55.993Z,40.29
2023-05-09T19:52:58.270Z,40.43
2023-05-09T19:58:00.054Z,40.54
2023-05-09T20:03:04.100Z,40.49
2023-05-09T20:08:06.236Z,40.93
2023-05-09T20:13:08.101Z,40.98
2023-05-09T20:18:10.146Z,41.12
2023-05-09T20:23:12.465Z,41.27
2023-05-09T20:28:20.147Z,41.61
2023-05-09T20:33:23.160Z,41.62
2023-05-09T20:38:25.007Z,41.96
2023-05-09T20:43:26.935Z,42.02
2023-05-09T20:48:29.491Z,42.04
2023-05-09T20:53:32.622Z,42.10
2023-05-09T20:58:34.785Z,42.06
2023-05-09T21:03:36.673Z,42.35
2023-05-09T21:08:40.540Z,42.50
2023-05-09T21:13:42.468Z,42.37
2023-05-09T21:18:47.174Z,42.32
2023-05-09T21:23:49.060Z,42.41
2023-05-09T21:28:51.380Z,42.62
2023-05-09T21:33:53.269Z,42.63
2023-05-09T21:38:55.134Z,42.74
2023-05-09T21:43:56.940Z,42.82
2023-05-09T21:48:59.456Z,42.94
2023-05-09T21:54:01.400Z,43.14
2023-05-09T21:59:03.556Z,43.15
2023-05-09T22:04:07.423Z,43.14
2023-05-09T22:09:10.472Z,43.16
2023-05-09T22:14:12.593Z,43.08
2023-05-09T22:19:15.635Z,43.34
2023-05-09T22:24:17.584Z,43.35
2023-05-09T22:29:24.598Z,43.61
2023-05-09T22:34:26.587Z,43.37
2023-05-09T22:39:31.337Z,43.48
2023-05-09T22:44:33.249Z,43.58
2023-05-09T22:49:35.689Z,43.76
2023-05-09T22:54:37.613Z,43.73
2023-05-09T22:59:39.568Z,44.08
2023-05-09T23:04:41.572Z,44.08
2023-05-09T23:09:43.533Z,44.33
2023-05-09T23:14:46.259Z,44.32
2023-05-09T23:19:48.115Z,44.42
2023-05-09T23:24:50.188Z,44.55
2023-05-09T23:29:52.253Z,44.64
2023-05-09T23:34:55.210Z,44.55
2023-05-09T23:39:57.100Z,44.70
2023-05-09T23:44:59.887Z,44.70
2023-05-09T23:50:01.878Z,44.61
2023-05-09T23:55:04.045Z,44.73
